Startpagina
METAR-TAF:

METAR-TAF

Vliegvelden :

Andahuaylas, Peru

breedte: 13-43S, lengte: 073-21W, hoogte: 3444 m

Actueel weer

Dit bericht is 20 uur en het 20 minuten geleden gemaakt, om 19:00 UTC
Wind 14 kt uit het noorden
Temperatuur 13°C
Vochtigheid 67%
Druk 1034 hPa
Zicht: 8000 m
Verspreide wolken op 1300 ft
Geheel bewolkt op 4000 ft
buien in de omgeving

METAR: SPHY 141900Z 36014KT 8000 VCSH SCT013 OVC040 13/07 Q1034 RMK BIRD HAZARD RWY 03/21 PP000

Tijdstip: 10:20 (15:20 UTC)

Verwachting

Dit bericht is 22 uur en het 20 minuten geleden gemaakt, om 17:00 UTC
Verwachting geldig van 14 om 18 UTC tot 15 om 18 UTC
Wind 10 kt uit het noorden
Zicht: 9000 m
Weinig wolken op 1500 ft
Gebroken wolken op 5000 ft
Wijzigt naar
van 14 om 21 UTC tot 14 om 23 UTC
Wind kt uit het noorden

TAF: SPHY 141700Z 1418/1518 36010KT 9000 FEW015 BKN050 TX15/1419Z TN04/1511Z BECMG 1421/1423 00000KT

Waarnemingen en weersverwachtingen van meer dan 4000 vliegvelden (METAR en TAF).

De beschikbare stations zijn de gele en rode punten op de kaart.

Ga met uw muis naar het station om de naam te zien.

Klik dan om waarnemingen en weersverwachtingen te zien.

kaart wijzigen: klik op de groene knoppen met een zwart kruis om in te zoomen, op de groene knop met een streepje om uit te zoomen of op de groene pijlen voor aangrenzende kaarten.


METAR-TAF: